createdAt,value
2022-10-17T00:01:30.159Z,4.80
2022-10-17T00:03:59.040Z,4.85
2022-10-17T00:06:28.112Z,4.70
2022-10-17T00:08:56.923Z,4.43
2022-10-17T00:11:27.511Z,4.13
2022-10-17T00:13:57.584Z,3.80
2022-10-17T00:16:28.433Z,3.85
2022-10-17T00:18:58.225Z,4.20
2022-10-17T00:21:28.013Z,4.28
2022-10-17T00:23:57.329Z,4.03
2022-10-17T00:26:28.543Z,3.67
2022-10-17T00:28:57.676Z,4.00
2022-10-17T00:31:27.343Z,3.90
2022-10-17T00:33:56.161Z,4.03
2022-10-17T00:36:27.529Z,4.13
2022-10-17T00:38:58.939Z,3.38
2022-10-17T00:41:32.587Z,3.90
2022-10-17T00:44:03.572Z,4.07
2022-10-17T00:46:34.804Z,3.78
2022-10-17T00:49:07.744Z,3.88
2022-10-17T00:51:42.906Z,4.25
2022-10-17T00:54:15.007Z,4.30
2022-10-17T00:56:46.434Z,4.07
2022-10-17T00:59:16.789Z,4.00
2022-10-17T01:01:54.741Z,4.97
2022-10-17T01:04:24.072Z,4.03
2022-10-17T01:06:53.158Z,4.70
2022-10-17T01:09:22.534Z,4.25
2022-10-17T01:12:00.860Z,4.00
2022-10-17T01:14:38.710Z,4.28
2022-10-17T01:17:15.584Z,4.28
2022-10-17T01:20:05.239Z,4.10
2022-10-17T01:22:42.123Z,4.88
2022-10-17T01:25:29.440Z,4.32
2022-10-17T01:28:21.343Z,4.30
2022-10-17T01:31:06.047Z,4.18
2022-10-17T01:33:53.785Z,3.88
2022-10-17T01:36:35.571Z,3.60
2022-10-17T01:39:14.574Z,3.83
2022-10-17T01:41:49.818Z,3.88
2022-10-17T01:44:22.306Z,3.63
2022-10-17T01:46:57.835Z,3.67
2022-10-17T01:49:32.791Z,3.65
2022-10-17T01:52:06.953Z,4.00
2022-10-17T01:54:42.556Z,3.70
2022-10-17T01:57:17.992Z,3.63
2022-10-17T01:59:51.197Z,4.18
2022-10-17T02:02:22.660Z,3.72
2022-10-17T02:04:53.991Z,3.90
2022-10-17T02:07:22.937Z,3.78
2022-10-17T02:09:52.075Z,3.90
2022-10-17T02:12:41.366Z,3.63
2022-10-17T02:15:29.612Z,3.60
2022-10-17T02:18:15.021Z,3.42
2022-10-17T02:20:53.367Z,3.28
2022-10-17T02:23:31.119Z,3.10
2022-10-17T02:26:08.191Z,3.35
2022-10-17T02:28:45.727Z,3.50
2022-10-17T02:31:18.756Z,3.63
2022-10-17T02:33:55.407Z,3.33
2022-10-17T02:36:28.729Z,3.33
2022-10-17T02:38:59.776Z,3.15
2022-10-17T02:44:06.194Z,3.55
2022-10-17T02:46:36.810Z,3.05
2022-10-17T02:49:17.275Z,3.13
2022-10-17T02:51:51.423Z,3.60
2022-10-17T02:54:25.490Z,3.08
2022-10-17T02:57:01.001Z,2.80
2022-10-17T03:02:07.834Z,3.40
2022-10-17T03:04:38.554Z,3.53
2022-10-17T03:07:07.699Z,3.15
2022-10-17T03:09:36.530Z,3.05
2022-10-17T03:12:06.490Z,3.07
2022-10-17T03:14:36.499Z,3.38
2022-10-17T03:17:06.114Z,2.97
2022-10-17T03:19:34.962Z,3.38
2022-10-17T03:22:05.472Z,3.28
2022-10-17T03:24:36.047Z,3.40
2022-10-17T03:27:05.335Z,3.72
2022-10-17T03:29:34.261Z,3.30
2022-10-17T03:32:05.354Z,3.50
2022-10-17T03:34:34.237Z,3.90
2022-10-17T03:37:05.249Z,4.00
2022-10-17T03:39:36.050Z,3.78
2022-10-17T03:42:05.629Z,4.50
2022-10-17T03:44:34.549Z,4.40
2022-10-17T03:47:03.652Z,4.00
2022-10-17T03:49:32.531Z,4.22
2022-10-17T03:52:01.643Z,4.40
2022-10-17T03:54:32.051Z,4.00
2022-10-17T03:57:01.683Z,3.90
2022-10-17T03:59:30.579Z,4.13
2022-10-17T04:02:07.460Z,3.80
2022-10-17T04:04:36.339Z,4.22
2022-10-17T04:07:06.027Z,4.30
2022-10-17T04:09:39.392Z,4.25
2022-10-17T04:12:18.794Z,4.40
2022-10-17T04:14:47.755Z,3.90
2022-10-17T04:17:17.814Z,3.88
2022-10-17T04:19:47.175Z,3.85
2022-10-17T04:22:18.734Z,4.30
2022-10-17T04:24:50.369Z,3.97
2022-10-17T04:27:38.137Z,3.85
2022-10-17T04:30:09.372Z,3.40
2022-10-17T04:35:28.914Z,4.75
2022-10-17T04:38:05.173Z,5.00
2022-10-17T04:40:35.392Z,5.43
2022-10-17T04:43:04.661Z,5.40
2022-10-17T04:45:38.095Z,6.30
2022-10-17T04:48:08.096Z,6.03
2022-10-17T04:50:36.944Z,6.03
2022-10-17T04:53:29.932Z,5.07
2022-10-17T04:56:00.385Z,4.82
2022-10-17T04:58:30.840Z,4.85
2022-10-17T05:03:31.409Z,4.35
2022-10-17T05:06:03.988Z,4.60
2022-10-17T05:08:33.177Z,4.25
2022-10-17T05:11:04.107Z,4.97
2022-10-17T05:13:33.316Z,4.40
2022-10-17T05:16:03.027Z,4.27
2022-10-17T05:18:32.241Z,4.50
2022-10-17T05:21:01.089Z,4.72
2022-10-17T05:23:31.604Z,4.97
2022-10-17T05:26:02.624Z,4.72
2022-10-17T05:28:31.809Z,5.00
2022-10-17T05:31:05.120Z,5.72
2022-10-17T05:33:34.614Z,6.13
2022-10-17T05:36:03.601Z,8.25
2022-10-17T05:38:32.723Z,7.65
2022-10-17T05:41:04.839Z,6.88
2022-10-17T05:43:35.958Z,7.18
2022-10-17T05:46:06.227Z,6.72
2022-10-17T05:48:36.384Z,6.80
2022-10-17T05:51:07.957Z,6.53
2022-10-17T05:53:40.655Z,6.00
2022-10-17T05:56:15.450Z,6.00
2022-10-17T05:58:50.368Z,6.28
2022-10-17T06:01:33.943Z,6.00
2022-10-17T06:04:03.083Z,5.50
2022-10-17T06:06:32.074Z,6.15
2022-10-17T06:09:01.122Z,5.55
2022-10-17T06:11:36.281Z,5.55
2022-10-17T06:14:05.655Z,6.00
2022-10-17T06:16:34.631Z,5.00
2022-10-17T06:19:03.785Z,4.97
2022-10-17T06:21:36.492Z,4.63
2022-10-17T06:24:11.620Z,5.00
2022-10-17T06:26:44.825Z,5.63
2022-10-17T06:29:16.386Z,8.25
2022-10-17T06:31:49.542Z,6.57
2022-10-17T06:34:18.867Z,5.10
2022-10-17T06:36:48.447Z,4.07
2022-10-17T06:39:19.887Z,4.00
2022-10-17T06:42:00.903Z,4.30
2022-10-17T06:44:46.924Z,3.90
2022-10-17T06:47:34.152Z,3.42
2022-10-17T06:50:09.800Z,3.75
2022-10-17T06:52:45.173Z,3.50
2022-10-17T06:55:35.469Z,3.90
2022-10-17T06:58:28.666Z,3.60
2022-10-17T07:03:43.960Z,3.53
2022-10-17T07:06:14.216Z,3.60
2022-10-17T07:08:45.534Z,3.70
2022-10-17T07:11:19.507Z,3.30
2022-10-17T07:13:52.060Z,3.58
2022-10-17T07:16:22.684Z,3.97
2022-10-17T07:18:59.317Z,4.05
2022-10-17T07:21:28.512Z,4.70
2022-10-17T07:23:58.106Z,4.50
2022-10-17T07:26:28.094Z,4.15
2022-10-17T07:28:58.497Z,4.18
2022-10-17T07:31:37.867Z,4.60
2022-10-17T07:34:06.755Z,4.82
2022-10-17T07:36:35.898Z,5.03
2022-10-17T07:39:07.006Z,6.70
2022-10-17T07:41:38.167Z,6.88
2022-10-17T07:44:08.568Z,6.45
2022-10-17T07:46:44.109Z,6.90
2022-10-17T07:49:13.102Z,6.35
2022-10-17T07:54:12.241Z,5.88
2022-10-17T07:56:41.314Z,6.53
2022-10-17T07:59:11.570Z,6.10
2022-10-17T08:01:40.809Z,5.78
2022-10-17T08:04:09.725Z,5.70
2022-10-17T08:06:38.849Z,6.25
2022-10-17T08:09:07.759Z,6.43
2022-10-17T08:11:37.264Z,6.05
2022-10-17T08:14:06.111Z,6.17
2022-10-17T08:16:36.714Z,7.50
2022-10-17T08:19:06.027Z,6.72
2022-10-17T08:21:35.325Z,6.82
2022-10-17T08:24:04.152Z,6.20
2022-10-17T08:26:33.262Z,5.97
2022-10-17T08:29:02.177Z,6.47
2022-10-17T08:31:31.328Z,6.35
2022-10-17T08:34:01.578Z,6.60
2022-10-17T08:36:30.681Z,7.15
2022-10-17T08:38:59.564Z,6.45
2022-10-17T08:41:45.096Z,7.18
2022-10-17T08:44:23.031Z,8.25
2022-10-17T08:46:57.107Z,6.78
2022-10-17T08:49:35.495Z,7.40
2022-10-17T08:52:12.040Z,7.60
2022-10-17T08:54:43.293Z,8.75
2022-10-17T08:57:15.431Z,9.02
2022-10-17T08:59:45.901Z,10.82
2022-10-17T09:02:31.301Z,12.18
2022-10-17T09:05:26.702Z,13.10
2022-10-17T09:08:13.708Z,11.38
2022-10-17T09:10:53.661Z,11.57
2022-10-17T09:16:24.502Z,9.95
2022-10-17T09:19:02.876Z,10.23
2022-10-17T09:21:41.734Z,10.18
2022-10-17T09:24:18.511Z,9.45
2022-10-17T09:26:47.882Z,9.20
2022-10-17T09:29:21.310Z,8.38
2022-10-17T09:34:32.093Z,8.43
2022-10-17T09:37:03.568Z,8.18
2022-10-17T09:39:33.101Z,8.10
2022-10-17T09:42:03.187Z,7.53
2022-10-17T09:44:34.440Z,7.60
2022-10-17T09:47:27.389Z,8.43
2022-10-17T09:49:56.723Z,8.85
2022-10-17T09:52:32.595Z,8.77
2022-10-17T09:55:06.153Z,8.55
2022-10-17T09:57:56.548Z,9.65
2022-10-17T10:00:27.788Z,9.25
2022-10-17T10:03:18.101Z,8.45
2022-10-17T10:06:02.335Z,8.60
2022-10-17T10:08:35.345Z,8.13
2022-10-17T10:11:07.918Z,9.23
2022-10-17T10:13:38.485Z,10.00
2022-10-17T10:16:32.345Z,9.68
2022-10-17T10:19:04.694Z,9.85
2022-10-17T10:21:51.017Z,9.27
2022-10-17T10:24:21.820Z,10.40
2022-10-17T10:26:53.486Z,10.13
2022-10-17T10:29:30.963Z,9.77
2022-10-17T10:32:10.268Z,8.70
2022-10-17T10:34:50.522Z,9.02
2022-10-17T10:37:22.394Z,9.20
2022-10-17T10:39:55.753Z,8.90
2022-10-17T10:42:29.738Z,9.20
2022-10-17T10:45:03.743Z,8.75
2022-10-17T10:47:33.821Z,8.68
2022-10-17T10:50:22.109Z,9.50
2022-10-17T10:53:02.127Z,8.82
2022-10-17T10:55:37.593Z,9.88
2022-10-17T10:58:17.319Z,9.15
2022-10-17T11:00:47.225Z,9.68
2022-10-17T11:05:52.456Z,8.50
2022-10-17T11:08:28.492Z,8.32
2022-10-17T11:11:18.118Z,8.55
2022-10-17T11:13:54.079Z,9.05
2022-10-17T11:16:33.041Z,10.02
2022-10-17T11:19:13.692Z,10.50
2022-10-17T11:21:48.120Z,10.90
2022-10-17T11:24:23.846Z,10.85
2022-10-17T11:26:59.867Z,10.57
2022-10-17T11:29:32.169Z,11.65
2022-10-17T11:32:05.021Z,11.07
2022-10-17T11:34:40.483Z,10.95
2022-10-17T11:37:17.314Z,11.35
2022-10-17T11:39:52.578Z,10.98
2022-10-17T11:42:28.656Z,10.40
2022-10-17T11:45:03.098Z,11.20
2022-10-17T11:47:45.004Z,10.50
2022-10-17T11:53:17.011Z,10.70
2022-10-17T11:55:47.287Z,10.20
2022-10-17T11:58:30.954Z,10.52
2022-10-17T12:01:11.165Z,9.70
2022-10-17T12:04:03.578Z,10.60
2022-10-17T12:06:49.312Z,9.77
2022-10-17T12:09:28.011Z,9.07
2022-10-17T12:11:58.979Z,9.18
2022-10-17T12:14:41.558Z,9.65
2022-10-17T12:17:32.832Z,9.73
2022-10-17T12:20:28.402Z,9.05
2022-10-17T12:23:00.948Z,8.70
2022-10-17T12:25:33.681Z,7.72
2022-10-17T12:28:17.038Z,8.00
2022-10-17T12:30:59.662Z,7.47
2022-10-17T12:33:40.011Z,7.28
2022-10-17T12:39:49.284Z,9.48
2022-10-17T12:42:54.828Z,10.07
2022-10-17T12:45:49.585Z,10.10
2022-10-17T12:48:54.926Z,10.23
2022-10-17T12:51:40.735Z,10.43
2022-10-17T12:54:14.010Z,9.98
2022-10-17T12:56:46.319Z,9.25
2022-10-17T12:59:17.880Z,9.80
2022-10-17T13:01:49.843Z,10.18
2022-10-17T13:04:20.391Z,10.00
2022-10-17T13:06:54.187Z,11.27
2022-10-17T13:09:29.782Z,11.85
2022-10-17T13:12:02.638Z,11.55
2022-10-17T13:14:32.952Z,11.10
2022-10-17T13:17:04.032Z,11.80
2022-10-17T13:19:44.601Z,10.65
2022-10-17T13:22:19.229Z,9.57
2022-10-17T13:24:49.014Z,8.90
2022-10-17T13:27:27.799Z,7.95
2022-10-17T13:29:57.722Z,8.30
2022-10-17T13:35:11.245Z,7.72
2022-10-17T13:37:43.825Z,7.30
2022-10-17T13:40:40.777Z,6.57
2022-10-17T13:43:16.264Z,7.38
2022-10-17T13:45:50.787Z,7.22
2022-10-17T13:48:22.939Z,7.30
2022-10-17T13:50:59.123Z,7.40
2022-10-17T13:53:35.451Z,7.43
2022-10-17T13:56:26.906Z,7.57
2022-10-17T13:58:57.956Z,7.65
2022-10-17T14:01:28.681Z,7.72
2022-10-17T14:04:08.485Z,8.48
2022-10-17T14:06:46.212Z,9.32
2022-10-17T14:09:24.867Z,9.50
2022-10-17T14:12:02.978Z,8.98
2022-10-17T14:14:46.409Z,9.50
2022-10-17T14:17:26.484Z,9.70
2022-10-17T14:20:14.056Z,9.40
2022-10-17T14:22:50.521Z,10.02
2022-10-17T14:25:35.299Z,10.32
2022-10-17T14:28:15.234Z,9.88
2022-10-17T14:31:01.434Z,10.13
2022-10-17T14:33:33.830Z,10.38
2022-10-17T14:36:06.315Z,10.40
2022-10-17T14:38:36.032Z,9.88
2022-10-17T14:41:41.456Z,11.13
2022-10-17T14:44:06.640Z,11.10
2022-10-17T14:46:37.769Z,10.77
2022-10-17T14:49:15.237Z,10.05
2022-10-17T14:52:15.075Z,9.80
2022-10-17T14:54:46.413Z,10.43
2022-10-17T14:57:23.497Z,11.00
2022-10-17T14:59:55.711Z,10.57
2022-10-17T15:02:28.597Z,11.25
2022-10-17T15:04:57.689Z,10.43
2022-10-17T15:07:26.838Z,11.05
2022-10-17T15:09:55.849Z,10.10
2022-10-17T15:12:27.437Z,10.60
2022-10-17T15:15:25.998Z,11.27
2022-10-17T15:18:02.684Z,11.25
2022-10-17T15:20:42.608Z,12.00
2022-10-17T15:23:36.650Z,11.80
2022-10-17T15:26:40.676Z,11.10
2022-10-17T15:29:29.826Z,12.35
2022-10-17T15:31:58.676Z,11.60
2022-10-17T15:34:28.430Z,12.85
2022-10-17T15:37:08.131Z,12.88
2022-10-17T15:39:38.276Z,13.60
2022-10-17T15:42:10.444Z,12.93
2022-10-17T15:44:44.131Z,12.38
2022-10-17T15:47:28.781Z,13.07
2022-10-17T15:49:58.602Z,13.02
2022-10-17T15:52:29.970Z,13.32
2022-10-17T15:55:02.410Z,13.35
2022-10-17T15:57:37.995Z,14.05
2022-10-17T16:00:17.045Z,14.90
2022-10-17T16:02:46.787Z,14.45
2022-10-17T16:05:18.574Z,14.18
2022-10-17T16:07:49.909Z,15.35
2022-10-17T16:10:19.379Z,15.05
2022-10-17T16:12:49.907Z,16.95
2022-10-17T16:15:23.376Z,17.40
2022-10-17T16:18:10.046Z,18.88
2022-10-17T16:20:50.275Z,17.45
2022-10-17T16:23:19.193Z,18.55
2022-10-17T16:25:48.265Z,19.40
2022-10-17T16:28:17.057Z,19.20
2022-10-17T16:30:47.561Z,18.63
2022-10-17T16:33:16.364Z,17.63
2022-10-17T16:35:46.691Z,17.60
2022-10-17T16:40:44.453Z,18.48
2022-10-17T16:43:14.292Z,20.45
2022-10-17T16:48:13.395Z,18.90
2022-10-17T16:50:42.607Z,25.33
2022-10-17T16:53:11.438Z,20.50
2022-10-17T16:55:40.531Z,21.50
2022-10-17T16:58:09.373Z,21.52
2022-10-17T17:00:40.788Z,22.48
2022-10-17T17:03:09.678Z,21.95
2022-10-17T17:05:40.103Z,22.88
2022-10-17T17:08:11.812Z,20.20
2022-10-17T17:10:46.821Z,22.92
2022-10-17T17:13:15.722Z,21.98
2022-10-17T17:18:19.470Z,22.85
2022-10-17T17:20:49.957Z,23.48
2022-10-17T17:23:18.759Z,22.73
2022-10-17T17:25:47.755Z,23.13
2022-10-17T17:28:16.577Z,24.30
2022-10-17T17:30:45.692Z,23.95
2022-10-17T17:33:14.544Z,24.45
2022-10-17T17:35:43.509Z,25.65
2022-10-17T17:38:13.960Z,24.92
2022-10-17T17:40:50.602Z,25.83
2022-10-17T17:43:20.236Z,25.60
2022-10-17T17:45:49.770Z,25.27
2022-10-17T17:48:18.754Z,24.63
2022-10-17T17:50:48.016Z,24.47
2022-10-17T17:53:18.926Z,24.83
2022-10-17T17:55:48.031Z,24.13
2022-10-17T17:58:16.919Z,23.42
2022-10-17T18:00:46.015Z,24.73
2022-10-17T18:03:14.950Z,23.58
2022-10-17T18:05:43.963Z,24.13
2022-10-17T18:08:12.859Z,24.00
2022-10-17T18:10:47.979Z,24.42
2022-10-17T18:13:17.275Z,23.90
2022-10-17T18:15:46.712Z,25.40
2022-10-17T18:18:15.579Z,23.93
2022-10-17T18:20:45.238Z,25.60
2022-10-17T18:23:14.158Z,24.90
2022-10-17T18:25:44.529Z,23.00
2022-10-17T18:30:42.323Z,23.50
2022-10-17T18:33:11.152Z,24.13
2022-10-17T18:35:40.199Z,24.17
2022-10-17T18:38:09.075Z,24.63
2022-10-17T18:40:38.441Z,23.73
2022-10-17T18:43:08.801Z,24.43
2022-10-17T18:45:37.883Z,24.17
2022-10-17T18:48:07.516Z,22.90
2022-10-17T18:50:36.730Z,25.30
2022-10-17T18:53:05.563Z,23.58
2022-10-17T18:55:34.634Z,23.75
2022-10-17T18:58:03.673Z,23.40
2022-10-17T19:00:34.181Z,23.60
2022-10-17T19:03:04.226Z,22.95
2022-10-17T19:05:34.768Z,22.02
2022-10-17T19:08:03.667Z,22.70
2022-10-17T19:10:34.715Z,21.58
2022-10-17T19:13:04.115Z,22.23
2022-10-17T19:15:34.588Z,22.15
2022-10-17T19:18:03.484Z,21.35
2022-10-17T19:20:32.504Z,21.60
2022-10-17T19:23:01.446Z,21.52
2022-10-17T19:25:30.712Z,20.80
2022-10-17T19:27:59.785Z,19.98
2022-10-17T19:30:29.079Z,20.30
2022-10-17T19:32:59.454Z,19.60
2022-10-17T19:35:28.533Z,18.67
2022-10-17T19:37:57.610Z,18.20
2022-10-17T19:40:26.752Z,17.90
2022-10-17T19:42:55.873Z,18.13
2022-10-17T19:45:24.970Z,18.90
2022-10-17T19:47:53.938Z,18.05
2022-10-17T19:50:24.347Z,18.00
2022-10-17T19:52:53.330Z,18.13
2022-10-17T19:55:22.422Z,18.03
2022-10-17T19:57:51.501Z,17.77
2022-10-17T20:00:20.808Z,18.15
2022-10-17T20:02:49.706Z,16.92
2022-10-17T20:05:21.650Z,16.35
2022-10-17T20:07:53.854Z,17.80
2022-10-17T20:10:23.488Z,17.30
2022-10-17T20:12:52.339Z,18.30
2022-10-17T20:15:21.439Z,17.15
2022-10-17T20:17:50.297Z,18.20
2022-10-17T20:20:19.792Z,17.70
2022-10-17T20:22:48.801Z,17.27
2022-10-17T20:25:19.475Z,17.80
2022-10-17T20:27:48.490Z,16.75
2022-10-17T20:30:17.572Z,16.67
2022-10-17T20:32:46.396Z,16.42
2022-10-17T20:35:15.495Z,15.85
2022-10-17T20:37:44.364Z,16.52
2022-10-17T20:40:34.180Z,16.17
2022-10-17T20:43:04.571Z,15.95
2022-10-17T20:45:50.422Z,16.20
2022-10-17T20:48:20.667Z,15.57
2022-10-17T20:50:49.997Z,15.70
2022-10-17T20:56:11.592Z,14.75
2022-10-17T20:58:41.836Z,15.25
2022-10-17T21:01:11.840Z,14.95
2022-10-17T21:03:44.029Z,14.23
2022-10-17T21:06:16.476Z,14.55
2022-10-17T21:08:46.132Z,15.07
2022-10-17T21:11:16.996Z,14.07
2022-10-17T21:13:48.459Z,13.90
2022-10-17T21:16:19.050Z,14.07
2022-10-17T21:18:49.311Z,14.10
2022-10-17T21:21:20.906Z,14.07
2022-10-17T21:23:51.847Z,13.82
2022-10-17T21:26:21.547Z,13.48
2022-10-17T21:28:52.345Z,14.45
2022-10-17T21:31:23.533Z,14.55
2022-10-17T21:33:53.996Z,14.00
2022-10-17T21:36:24.096Z,13.45
2022-10-17T21:38:54.644Z,14.20
2022-10-17T21:41:27.600Z,14.15
2022-10-17T21:44:00.955Z,13.52
2022-10-17T21:46:31.020Z,14.32
2022-10-17T21:49:01.249Z,12.90
2022-10-17T21:51:30.728Z,13.40
2022-10-17T21:53:59.900Z,13.20
2022-10-17T21:56:30.793Z,13.67
2022-10-17T21:59:01.802Z,13.25
2022-10-17T22:01:34.000Z,12.63
2022-10-17T22:04:05.579Z,12.05
2022-10-17T22:06:40.174Z,12.82
2022-10-17T22:09:15.229Z,12.85
2022-10-17T22:11:46.463Z,13.27
2022-10-17T22:14:18.563Z,12.57
2022-10-17T22:16:48.997Z,12.95
2022-10-17T22:19:20.615Z,12.93
2022-10-17T22:21:49.896Z,13.13
2022-10-17T22:26:50.752Z,12.88
2022-10-17T22:29:21.184Z,11.88
2022-10-17T22:31:50.220Z,12.27
2022-10-17T22:34:20.164Z,11.63
2022-10-17T22:39:18.127Z,11.07
2022-10-17T22:41:47.174Z,10.30
2022-10-17T22:44:16.020Z,10.77
2022-10-17T22:46:46.410Z,10.07
2022-10-17T22:49:15.239Z,10.20
2022-10-17T22:51:44.253Z,10.10
2022-10-17T22:54:13.085Z,10.60
2022-10-17T22:56:42.154Z,10.77
2022-10-17T22:59:10.930Z,10.38
2022-10-17T23:01:40.050Z,10.35
2022-10-17T23:04:10.363Z,10.10
2022-10-17T23:06:39.499Z,9.80
2022-10-17T23:09:08.349Z,10.13
2022-10-17T23:11:37.339Z,10.10
2022-10-17T23:14:06.159Z,11.15
2022-10-17T23:16:35.298Z,9.75
2022-10-17T23:19:04.185Z,11.02
2022-10-17T23:21:34.590Z,10.35
2022-10-17T23:24:03.437Z,10.10
2022-10-17T23:26:32.490Z,9.48
2022-10-17T23:29:01.354Z,10.23
2022-10-17T23:31:30.508Z,9.83
2022-10-17T23:34:00.352Z,9.38
2022-10-17T23:38:59.491Z,9.80
2022-10-17T23:41:28.795Z,9.40
2022-10-17T23:43:57.685Z,9.50
2022-10-17T23:46:26.749Z,9.65
2022-10-17T23:48:55.662Z,9.32
2022-10-17T23:51:24.896Z,9.07
2022-10-17T23:53:53.788Z,8.93
2022-10-17T23:56:24.193Z,9.20
2022-10-17T23:58:53.053Z,9.40
